Time;durP1;ratioP1;P1;durP2;ratioP2;P2;SDS_P1;SDS_P2;PMS_P1;PMS_P2;Temp;Humidity;BMP_temperature;BMP_pressure;BME280_temperature;BME280_humidity;BME280_pressure;Samples;Min_cycle;Max_cycle;Signal;HPM_P1;HPM_P2
2022/12/16 00:01:06;;;;;;;1.33;1.27;;;-0.50;99.90;;;;;;5029154;28;21843;-80
2022/12/16 00:03:32;;;;;;;2.35;2.15;;;-0.60;99.90;;;;;;5041982;28;20041;-80
2022/12/16 00:05:58;;;;;;;2.75;2.42;;;-1.10;99.90;;;;;;5041806;28;20059;-81
2022/12/16 00:08:24;;;;;;;1.60;1.55;;;-0.80;99.90;;;;;;5028914;28;20174;-81
2022/12/16 00:10:53;;;;;;;0.70;0.70;;;-0.80;99.90;;;;;;5024518;28;20049;-80
2022/12/16 00:13:19;;;;;;;0.88;0.88;;;-0.90;99.90;;;;;;5029940;28;20044;-79
2022/12/16 00:15:48;;;;;;;0.70;0.70;;;-0.90;99.90;;;;;;5034519;28;20076;-80
2022/12/16 00:18:14;;;;;;;0.90;0.90;;;-0.90;99.90;;;;;;5050688;28;20174;-78
2022/12/16 00:20:54;;;;;;;1.23;1.23;;;-0.90;99.90;;;;;;5056499;28;20087;-81
2022/12/16 00:23:21;;;;;;;1.10;1.10;;;-0.90;99.90;;;;;;5036939;28;20606;-78
2022/12/16 00:25:47;;;;;;;0.80;0.80;;;-0.90;99.90;;;;;;5059767;28;20182;-78
2022/12/16 00:28:16;;;;;;;0.77;0.77;;;-0.70;99.90;;;;;;5040248;28;20044;-79
2022/12/16 00:30:43;;;;;;;0.80;0.80;;;-0.70;99.90;;;;;;5053583;28;20438;-78
2022/12/16 00:33:08;;;;;;;1.95;1.52;;;-0.60;99.90;;;;;;5044350;28;20049;-78
2022/12/16 00:35:34;;;;;;;0.68;0.68;;;-0.60;99.90;;;;;;5036819;28;20029;-80
2022/12/16 00:38:00;;;;;;;0.88;0.88;;;-0.50;99.90;;;;;;5037989;28;20540;-80
2022/12/16 00:40:26;;;;;;;0.60;0.60;;;-0.50;99.90;;;;;;5041062;28;20037;-81
2022/12/16 00:42:51;;;;;;;1.08;1.08;;;-0.40;99.90;;;;;;5018686;28;20063;-78
2022/12/16 00:45:17;;;;;;;0.70;0.70;;;-0.40;99.90;;;;;;5037358;28;21969;-80
2022/12/16 00:47:45;;;;;;;0.80;0.80;;;-0.30;99.90;;;;;;5025204;28;20105;-79
2022/12/16 00:50:10;;;;;;;1.20;1.10;;;-0.10;99.90;;;;;;5038529;28;20086;-78
2022/12/16 00:52:37;;;;;;;0.70;0.70;;;0.10;99.90;;;;;;5035571;28;20078;-79
2022/12/16 00:55:03;;;;;;;0.80;0.80;;;0.10;99.90;;;;;;5036519;28;20041;-79
2022/12/16 00:57:29;;;;;;;0.80;0.80;;;0.20;99.90;;;;;;5038526;28;20043;-79
2022/12/16 00:59:56;;;;;;;0.80;0.80;;;0.30;99.90;;;;;;5050089;28;20041;-79
2022/12/16 01:02:22;;;;;;;0.73;0.73;;;0.50;99.90;;;;;;5035892;28;20044;-78
2022/12/16 01:04:49;;;;;;;0.90;0.90;;;0.70;99.90;;;;;;5020259;28;20142;-78
2022/12/16 01:07:16;;;;;;;0.63;0.63;;;0.80;99.90;;;;;;5031725;28;20087;-80
2022/12/16 01:09:43;;;;;;;0.75;0.75;;;0.80;99.90;;;;;;5039832;28;20052;-80
2022/12/16 01:12:10;;;;;;;0.80;0.80;;;0.90;99.90;;;;;;5017092;28;20569;-79
2022/12/16 01:14:36;;;;;;;;;;;1.00;99.90;;;;;;5040997;28;20049;-80
2022/12/16 01:17:01;;;;;;;0.70;0.70;;;1.00;99.90;;;;;;5041574;28;19924;-80
2022/12/16 01:19:28;;;;;;;0.70;0.70;;;1.20;99.90;;;;;;5061161;28;20044;-81
2022/12/16 01:21:54;;;;;;;0.60;0.60;;;1.20;99.90;;;;;;5036970;28;20133;-80
2022/12/16 01:24:20;;;;;;;;;;;1.20;99.90;;;;;;5044320;28;20059;-80
2022/12/16 01:26:46;;;;;;;0.70;0.70;;;1.20;99.90;;;;;;5050352;28;19916;-81
2022/12/16 01:29:17;;;;;;;0.70;0.70;;;1.30;99.90;;;;;;5029255;28;20043;-79
2022/12/16 01:31:46;;;;;;;0.80;0.80;;;1.30;99.90;;;;;;5053326;28;20493;-79
2022/12/16 01:34:12;;;;;;;0.70;0.70;;;1.30;99.90;;;;;;5044854;28;20041;-79
2022/12/16 01:36:39;;;;;;;0.60;0.60;;;1.40;99.90;;;;;;5047878;28;20123;-80
2022/12/16 01:39:05;;;;;;;0.70;0.70;;;1.40;99.90;;;;;;5048360;28;20074;-79
2022/12/16 01:41:32;;;;;;;1.45;1.35;;;1.40;99.90;;;;;;5038371;28;20036;-80
2022/12/16 01:44:21;;;;;;;0.80;0.80;;;1.40;99.90;;;;;;5054679;28;20422;-78
2022/12/16 01:47:00;;;;;;;0.70;0.70;;;1.50;99.90;;;;;;5063730;28;21682;-79
2022/12/16 01:49:38;;;;;;;0.82;0.82;;;1.50;99.90;;;;;;5067974;28;20041;-79
2022/12/16 01:52:08;;;;;;;0.82;0.82;;;1.50;99.90;;;;;;5025653;28;20052;-78
2022/12/16 01:54:39;;;;;;;0.60;0.60;;;1.60;99.90;;;;;;5036712;28;20041;-78
2022/12/16 01:57:25;;;;;;;0.77;0.77;;;1.70;99.90;;;;;;5042299;28;20993;-77
2022/12/16 01:59:53;;;;;;;1.65;0.93;;;1.70;99.90;;;;;;5041431;28;20075;-78
2022/12/16 02:02:19;;;;;;;0.80;0.80;;;1.70;99.90;;;;;;5039077;28;20152;-79
2022/12/16 02:07:32;;;;;;;0.70;0.70;;;1.60;99.90;;;;;;5038170;28;20056;-80
2022/12/16 02:09:58;;;;;;;0.80;0.80;;;1.60;99.90;;;;;;5042856;28;20048;-79
2022/12/16 02:12:24;;;;;;;;;;;1.70;99.90;;;;;;5059211;28;20077;-80
2022/12/16 02:14:53;;;;;;;0.70;0.70;;;1.60;99.90;;;;;;5038929;28;20061;-79
2022/12/16 02:17:28;;;;;;;0.60;0.60;;;1.60;99.90;;;;;;5043680;28;20055;-80
2022/12/16 02:20:24;;;;;;;0.70;0.70;;;1.50;99.90;;;;;;5053418;28;20397;-78
2022/12/16 02:23:01;;;;;;;0.70;0.70;;;1.50;99.90;;;;;;5020394;28;20056;-78
2022/12/16 02:25:55;;;;;;;0.70;0.70;;;1.50;99.90;;;;;;5038764;28;20048;-80
2022/12/16 02:28:36;;;;;;;0.70;0.70;;;1.50;99.90;;;;;;5037978;28;20063;-79
2022/12/16 02:31:17;;;;;;;15.60;1.40;;;1.40;99.90;;;;;;5042094;28;20041;-79
2022/12/16 02:34:05;;;;;;;1.77;1.45;;;1.40;99.90;;;;;;5038361;28;20037;-80
2022/12/16 02:36:51;;;;;;;0.65;0.65;;;1.30;99.90;;;;;;5035413;28;20048;-79
2022/12/16 02:39:59;;;;;;;1.02;1.02;;;1.30;99.90;;;;;;5055138;28;20506;-77
2022/12/16 02:42:36;;;;;;;1.45;1.40;;;1.30;99.90;;;;;;5040288;28;20045;-77
2022/12/16 02:45:07;;;;;;;1.40;1.30;;;1.20;99.90;;;;;;5049797;28;20060;-79
2022/12/16 02:47:33;;;;;;;0.70;0.70;;;1.20;99.90;;;;;;5055367;28;20085;-79
2022/12/16 02:50:02;;;;;;;0.70;0.70;;;1.20;99.90;;;;;;5043829;28;20050;-78
2022/12/16 02:52:29;;;;;;;;;;;1.20;99.90;;;;;;5038279;28;20049;-78
2022/12/16 02:55:00;;;;;;;0.70;0.70;;;1.20;99.90;;;;;;5043231;28;19922;-78
2022/12/16 02:57:57;;;;;;;0.70;0.70;;;1.20;99.90;;;;;;5058939;28;20041;-78
2022/12/16 03:00:24;;;;;;;0.80;0.80;;;1.30;99.90;;;;;;5039136;28;20052;-79
2022/12/16 03:03:22;;;;;;;1.02;1.02;;;1.20;99.90;;;;;;5041829;28;20662;-77
2022/12/16 03:05:50;;;;;;;0.60;0.60;;;1.30;99.90;;;;;;5052399;28;22014;-79
2022/12/16 03:08:27;;;;;;;0.70;0.70;;;1.40;99.90;;;;;;5018995;28;20127;-77
2022/12/16 03:10:58;;;;;;;0.70;0.70;;;1.40;99.90;;;;;;5037432;28;20056;-79
2022/12/16 03:13:31;;;;;;;0.80;0.80;;;1.60;99.90;;;;;;5043053;28;20045;-78
2022/12/16 03:16:00;;;;;;;0.70;0.70;;;1.40;99.90;;;;;;5041412;28;20083;-78
2022/12/16 03:18:26;;;;;;;0.90;0.90;;;1.40;99.90;;;;;;5055079;28;20132;-80
2022/12/16 03:21:00;;;;;;;0.73;0.73;;;1.50;99.90;;;;;;5051151;28;20063;-79
2022/12/16 03:23:51;;;;;;;9.07;5.20;;;1.50;99.90;;;;;;5037775;28;21826;-78
2022/12/16 03:26:28;;;;;;;0.75;0.75;;;1.50;99.90;;;;;;5064638;28;21784;-80
2022/12/16 03:29:06;;;;;;;0.73;0.73;;;1.60;99.90;;;;;;5067988;28;20389;-81
2022/12/16 03:31:53;;;;;;;1.23;1.23;;;1.60;99.90;;;;;;5048625;28;20410;-80
2022/12/16 03:34:33;;;;;;;1.00;1.00;;;1.60;99.90;;;;;;5054216;28;20382;-81
2022/12/16 03:37:11;;;;;;;1.48;1.38;;;1.70;99.90;;;;;;5051087;28;20478;-78
2022/12/16 03:39:45;;;;;;;1.17;1.17;;;1.70;99.90;;;;;;5051673;28;20115;-80
2022/12/16 03:42:14;;;;;;;1.70;1.50;;;1.70;99.90;;;;;;5066901;28;20147;-79
2022/12/16 03:44:46;;;;;;;2.00;1.90;;;1.60;99.90;;;;;;5033161;28;20048;-79
2022/12/16 03:47:12;;;;;;;1.15;1.15;;;1.60;99.90;;;;;;5053012;28;20032;-79
2022/12/16 03:49:38;;;;;;;;;;;1.60;99.90;;;;;;5051253;28;20029;-80
2022/12/16 03:52:06;;;;;;;0.90;0.90;;;1.50;99.90;;;;;;5049348;28;19932;-79
2022/12/16 03:54:33;;;;;;;1.83;1.48;;;1.50;99.90;;;;;;5026431;28;20045;-79
2022/12/16 03:56:59;;;;;;;0.80;0.80;;;1.50;99.90;;;;;;5020873;28;20079;-80
2022/12/16 03:59:25;;;;;;;0.68;0.68;;;1.50;99.90;;;;;;5038866;28;20131;-80
2022/12/16 04:01:54;;;;;;;0.73;0.73;;;1.40;99.90;;;;;;5043193;28;20048;-77
2022/12/16 04:04:19;;;;;;;0.80;0.80;;;1.40;99.90;;;;;;5020861;28;21367;-80
2022/12/16 04:07:18;;;;;;;1.45;1.35;;;1.30;99.90;;;;;;5039793;28;20049;-79
2022/12/16 04:09:33;;;;;;;4.22;1.15;;;1.30;99.90;;;;;;5002950;28;1104266;-80
2022/12/16 04:25:46;;;;;;;0.80;0.80;;;0.90;99.90;;;;;;5065731;28;20032;-77
2022/12/16 04:28:11;;;;;;;1.98;1.88;;;0.90;99.90;;;;;;5031237;28;20075;-78
2022/12/16 04:30:37;;;;;;;0.95;0.95;;;0.90;99.90;;;;;;5033224;28;20088;-79
